sensor_id;sensor_type;location;lat;lon;timestamp;P1;durP1;ratioP1;P2;durP2;ratioP2
16820;SDS011;8527;49.740;6.604;2022-11-23T00:02:40;9.38;;;2.22;;
16820;SDS011;8527;49.740;6.604;2022-11-23T00:07:43;13.10;;;2.65;;
16820;SDS011;8527;49.740;6.604;2022-11-23T00:12:46;15.13;;;2.58;;
16820;SDS011;8527;49.740;6.604;2022-11-23T00:17:47;14.85;;;3.15;;
16820;SDS011;8527;49.740;6.604;2022-11-23T00:22:46;17.27;;;2.47;;
16820;SDS011;8527;49.740;6.604;2022-11-23T00:27:47;5.78;;;2.28;;
16820;SDS011;8527;49.740;6.604;2022-11-23T00:32:53;12.20;;;2.65;;
16820;SDS011;8527;49.740;6.604;2022-11-23T00:37:52;10.45;;;2.63;;
16820;SDS011;8527;49.740;6.604;2022-11-23T00:42:56;12.05;;;2.17;;
16820;SDS011;8527;49.740;6.604;2022-11-23T00:47:55;11.18;;;2.55;;
16820;SDS011;8527;49.740;6.604;2022-11-23T00:52:55;17.75;;;3.40;;
16820;SDS011;8527;49.740;6.604;2022-11-23T00:57:56;11.70;;;2.20;;
16820;SDS011;8527;49.740;6.604;2022-11-23T01:02:59;18.25;;;2.47;;
16820;SDS011;8527;49.740;6.604;2022-11-23T01:08:14;13.02;;;2.33;;
16820;SDS011;8527;49.740;6.604;2022-11-23T01:13:15;12.38;;;2.25;;
16820;SDS011;8527;49.740;6.604;2022-11-23T01:18:13;8.05;;;2.13;;
16820;SDS011;8527;49.740;6.604;2022-11-23T01:23:28;10.68;;;2.33;;
16820;SDS011;8527;49.740;6.604;2022-11-23T01:28:31;14.15;;;3.25;;
16820;SDS011;8527;49.740;6.604;2022-11-23T01:33:30;11.48;;;2.65;;
16820;SDS011;8527;49.740;6.604;2022-11-23T01:38:32;18.40;;;3.13;;
16820;SDS011;8527;49.740;6.604;2022-11-23T01:43:33;12.07;;;3.42;;
16820;SDS011;8527;49.740;6.604;2022-11-23T01:48:35;24.83;;;5.07;;
16820;SDS011;8527;49.740;6.604;2022-11-23T01:53:43;11.98;;;3.53;;
16820;SDS011;8527;49.740;6.604;2022-11-23T01:58:51;10.93;;;2.67;;
16820;SDS011;8527;49.740;6.604;2022-11-23T02:03:52;16.80;;;3.20;;
16820;SDS011;8527;49.740;6.604;2022-11-23T02:08:59;12.70;;;2.20;;
16820;SDS011;8527;49.740;6.604;2022-11-23T02:14:01;13.77;;;2.60;;
16820;SDS011;8527;49.740;6.604;2022-11-23T02:18:59;19.10;;;3.55;;
16820;SDS011;8527;49.740;6.604;2022-11-23T02:24:13;20.80;;;3.17;;
16820;SDS011;8527;49.740;6.604;2022-11-23T02:29:23;12.85;;;3.10;;
16820;SDS011;8527;49.740;6.604;2022-11-23T02:34:48;16.25;;;3.28;;
16820;SDS011;8527;49.740;6.604;2022-11-23T02:39:48;18.95;;;3.50;;
16820;SDS011;8527;49.740;6.604;2022-11-23T02:44:52;15.80;;;2.78;;
16820;SDS011;8527;49.740;6.604;2022-11-23T02:50:03;12.57;;;2.40;;
16820;SDS011;8527;49.740;6.604;2022-11-23T02:55:05;14.93;;;2.38;;
16820;SDS011;8527;49.740;6.604;2022-11-23T03:00:11;18.05;;;3.47;;
16820;SDS011;8527;49.740;6.604;2022-11-23T03:05:11;9.88;;;2.30;;
16820;SDS011;8527;49.740;6.604;2022-11-23T03:10:16;13.95;;;2.60;;
16820;SDS011;8527;49.740;6.604;2022-11-23T03:15:17;17.65;;;3.15;;
16820;SDS011;8527;49.740;6.604;2022-11-23T03:20:19;19.45;;;3.03;;
16820;SDS011;8527;49.740;6.604;2022-11-23T03:25:17;19.88;;;2.95;;
16820;SDS011;8527;49.740;6.604;2022-11-23T03:30:24;15.18;;;2.42;;
16820;SDS011;8527;49.740;6.604;2022-11-23T03:35:25;21.25;;;2.70;;
16820;SDS011;8527;49.740;6.604;2022-11-23T03:40:24;13.50;;;2.35;;
16820;SDS011;8527;49.740;6.604;2022-11-23T03:45:31;13.30;;;2.20;;
16820;SDS011;8527;49.740;6.604;2022-11-23T03:50:30;16.58;;;2.63;;
16820;SDS011;8527;49.740;6.604;2022-11-23T03:55:28;10.02;;;2.53;;
16820;SDS011;8527;49.740;6.604;2022-11-23T04:00:27;18.50;;;2.50;;
16820;SDS011;8527;49.740;6.604;2022-11-23T04:05:28;15.40;;;2.35;;
16820;SDS011;8527;49.740;6.604;2022-11-23T04:10:27;11.18;;;2.20;;
16820;SDS011;8527;49.740;6.604;2022-11-23T04:15:33;15.45;;;2.65;;
16820;SDS011;8527;49.740;6.604;2022-11-23T04:20:37;20.98;;;3.17;;
16820;SDS011;8527;49.740;6.604;2022-11-23T04:25:38;8.90;;;2.28;;
16820;SDS011;8527;49.740;6.604;2022-11-23T04:30:44;19.02;;;4.82;;
16820;SDS011;8527;49.740;6.604;2022-11-23T04:35:46;14.35;;;2.70;;
16820;SDS011;8527;49.740;6.604;2022-11-23T04:40:45;17.73;;;4.40;;
16820;SDS011;8527;49.740;6.604;2022-11-23T04:45:45;16.77;;;3.33;;
16820;SDS011;8527;49.740;6.604;2022-11-23T04:50:45;9.00;;;2.58;;
16820;SDS011;8527;49.740;6.604;2022-11-23T04:55:45;19.20;;;3.83;;
16820;SDS011;8527;49.740;6.604;2022-11-23T05:00:49;13.95;;;3.55;;
16820;SDS011;8527;49.740;6.604;2022-11-23T05:05:59;12.25;;;1.95;;
16820;SDS011;8527;49.740;6.604;2022-11-23T05:11:01;11.25;;;2.35;;
16820;SDS011;8527;49.740;6.604;2022-11-23T05:16:04;12.75;;;2.72;;
16820;SDS011;8527;49.740;6.604;2022-11-23T05:21:05;14.98;;;2.60;;
16820;SDS011;8527;49.740;6.604;2022-11-23T05:26:04;15.13;;;2.92;;
16820;SDS011;8527;49.740;6.604;2022-11-23T05:31:08;18.92;;;2.83;;
16820;SDS011;8527;49.740;6.604;2022-11-23T05:36:10;9.35;;;2.60;;
16820;SDS011;8527;49.740;6.604;2022-11-23T05:41:11;9.82;;;2.25;;
16820;SDS011;8527;49.740;6.604;2022-11-23T05:46:12;17.98;;;2.65;;
16820;SDS011;8527;49.740;6.604;2022-11-23T05:51:14;16.90;;;2.97;;
16820;SDS011;8527;49.740;6.604;2022-11-23T05:56:15;18.20;;;2.95;;
16820;SDS011;8527;49.740;6.604;2022-11-23T06:01:19;18.85;;;3.63;;
16820;SDS011;8527;49.740;6.604;2022-11-23T06:06:20;16.83;;;2.97;;
16820;SDS011;8527;49.740;6.604;2022-11-23T06:11:19;18.60;;;3.47;;
16820;SDS011;8527;49.740;6.604;2022-11-23T06:16:17;23.33;;;3.10;;
16820;SDS011;8527;49.740;6.604;2022-11-23T06:21:21;13.60;;;3.22;;
16820;SDS011;8527;49.740;6.604;2022-11-23T06:26:23;11.50;;;3.22;;
16820;SDS011;8527;49.740;6.604;2022-11-23T06:31:22;13.77;;;3.25;;
16820;SDS011;8527;49.740;6.604;2022-11-23T06:36:25;12.85;;;4.20;;
16820;SDS011;8527;49.740;6.604;2022-11-23T06:41:32;13.57;;;3.38;;
16820;SDS011;8527;49.740;6.604;2022-11-23T06:46:37;16.90;;;3.72;;
16820;SDS011;8527;49.740;6.604;2022-11-23T06:51:38;16.27;;;3.20;;
16820;SDS011;8527;49.740;6.604;2022-11-23T06:56:40;18.08;;;3.33;;
16820;SDS011;8527;49.740;6.604;2022-11-23T07:01:39;14.77;;;3.25;;
16820;SDS011;8527;49.740;6.604;2022-11-23T07:06:41;12.05;;;3.42;;
16820;SDS011;8527;49.740;6.604;2022-11-23T07:11:40;21.40;;;3.67;;
16820;SDS011;8527;49.740;6.604;2022-11-23T07:16:40;11.13;;;3.28;;
16820;SDS011;8527;49.740;6.604;2022-11-23T07:21:38;15.73;;;3.90;;
16820;SDS011;8527;49.740;6.604;2022-11-23T07:26:39;14.35;;;3.92;;
16820;SDS011;8527;49.740;6.604;2022-11-23T07:31:38;13.88;;;3.58;;
16820;SDS011;8527;49.740;6.604;2022-11-23T07:36:37;11.70;;;3.80;;
16820;SDS011;8527;49.740;6.604;2022-11-23T07:41:38;15.32;;;3.75;;
16820;SDS011;8527;49.740;6.604;2022-11-23T07:46:37;11.02;;;2.90;;
16820;SDS011;8527;49.740;6.604;2022-11-23T07:51:38;16.05;;;3.65;;
16820;SDS011;8527;49.740;6.604;2022-11-23T07:56:47;12.60;;;3.45;;
16820;SDS011;8527;49.740;6.604;2022-11-23T08:01:54;11.27;;;2.95;;
16820;SDS011;8527;49.740;6.604;2022-11-23T08:06:56;13.82;;;3.28;;
16820;SDS011;8527;49.740;6.604;2022-11-23T08:11:59;12.82;;;3.22;;
16820;SDS011;8527;49.740;6.604;2022-11-23T08:17:00;12.82;;;3.42;;
16820;SDS011;8527;49.740;6.604;2022-11-23T08:21:59;21.35;;;3.15;;
16820;SDS011;8527;49.740;6.604;2022-11-23T08:27:02;13.25;;;3.20;;
16820;SDS011;8527;49.740;6.604;2022-11-23T08:32:14;12.00;;;3.35;;
16820;SDS011;8527;49.740;6.604;2022-11-23T08:37:18;14.43;;;3.25;;
16820;SDS011;8527;49.740;6.604;2022-11-23T08:42:19;11.43;;;3.25;;
16820;SDS011;8527;49.740;6.604;2022-11-23T08:47:17;12.88;;;3.00;;
16820;SDS011;8527;49.740;6.604;2022-11-23T08:52:18;11.80;;;3.08;;
16820;SDS011;8527;49.740;6.604;2022-11-23T08:57:23;10.05;;;3.05;;
16820;SDS011;8527;49.740;6.604;2022-11-23T09:02:31;19.40;;;3.60;;
16820;SDS011;8527;49.740;6.604;2022-11-23T09:07:37;9.77;;;3.17;;
16820;SDS011;8527;49.740;6.604;2022-11-23T09:12:39;11.98;;;3.10;;
16820;SDS011;8527;49.740;6.604;2022-11-23T09:18:04;14.95;;;3.75;;
16820;SDS011;8527;49.740;6.604;2022-11-23T09:23:05;15.07;;;4.00;;
16820;SDS011;8527;49.740;6.604;2022-11-23T09:28:16;12.38;;;3.65;;
16820;SDS011;8527;49.740;6.604;2022-11-23T09:33:17;12.43;;;3.25;;
16820;SDS011;8527;49.740;6.604;2022-11-23T09:38:16;17.75;;;3.47;;
16820;SDS011;8527;49.740;6.604;2022-11-23T09:43:36;15.80;;;3.33;;
16820;SDS011;8527;49.740;6.604;2022-11-23T09:48:44;10.63;;;3.90;;
16820;SDS011;8527;49.740;6.604;2022-11-23T09:53:57;13.98;;;3.45;;
16820;SDS011;8527;49.740;6.604;2022-11-23T09:59:04;13.93;;;3.85;;
16820;SDS011;8527;49.740;6.604;2022-11-23T10:04:14;13.32;;;3.38;;
16820;SDS011;8527;49.740;6.604;2022-11-23T10:09:18;11.10;;;2.80;;
16820;SDS011;8527;49.740;6.604;2022-11-23T10:14:37;7.65;;;2.78;;
16820;SDS011;8527;49.740;6.604;2022-11-23T10:19:52;7.18;;;2.78;;
16820;SDS011;8527;49.740;6.604;2022-11-23T10:25:00;16.60;;;3.10;;
16820;SDS011;8527;49.740;6.604;2022-11-23T10:30:05;7.13;;;3.13;;
16820;SDS011;8527;49.740;6.604;2022-11-23T10:35:10;10.80;;;2.53;;
16820;SDS011;8527;49.740;6.604;2022-11-23T10:40:15;9.85;;;2.30;;
16820;SDS011;8527;49.740;6.604;2022-11-23T10:45:22;10.57;;;2.40;;
16820;SDS011;8527;49.740;6.604;2022-11-23T10:50:24;10.52;;;2.75;;
16820;SDS011;8527;49.740;6.604;2022-11-23T10:55:26;8.80;;;2.20;;
16820;SDS011;8527;49.740;6.604;2022-11-23T11:00:28;8.70;;;2.50;;
16820;SDS011;8527;49.740;6.604;2022-11-23T11:05:31;10.48;;;2.40;;
16820;SDS011;8527;49.740;6.604;2022-11-23T11:10:40;9.20;;;2.17;;
16820;SDS011;8527;49.740;6.604;2022-11-23T11:15:41;7.03;;;2.38;;
16820;SDS011;8527;49.740;6.604;2022-11-23T11:20:51;6.90;;;2.15;;
16820;SDS011;8527;49.740;6.604;2022-11-23T11:26:04;5.82;;;1.80;;
16820;SDS011;8527;49.740;6.604;2022-11-23T11:36:27;8.70;;;2.17;;
16820;SDS011;8527;49.740;6.604;2022-11-23T11:41:33;5.53;;;1.90;;
16820;SDS011;8527;49.740;6.604;2022-11-23T11:46:42;7.03;;;1.95;;
16820;SDS011;8527;49.740;6.604;2022-11-23T11:51:48;5.03;;;1.55;;
16820;SDS011;8527;49.740;6.604;2022-11-23T11:56:53;6.72;;;1.50;;
16820;SDS011;8527;49.740;6.604;2022-11-23T12:02:08;7.05;;;1.50;;
16820;SDS011;8527;49.740;6.604;2022-11-23T12:07:19;8.65;;;1.77;;
16820;SDS011;8527;49.740;6.604;2022-11-23T12:12:21;8.70;;;1.40;;
16820;SDS011;8527;49.740;6.604;2022-11-23T12:17:35;4.45;;;1.73;;
16820;SDS011;8527;49.740;6.604;2022-11-23T12:22:50;3.58;;;1.48;;
16820;SDS011;8527;49.740;6.604;2022-11-23T12:28:14;10.63;;;1.95;;
16820;SDS011;8527;49.740;6.604;2022-11-23T12:33:31;5.47;;;1.70;;
16820;SDS011;8527;49.740;6.604;2022-11-23T12:38:53;5.07;;;1.75;;
16820;SDS011;8527;49.740;6.604;2022-11-23T12:44:19;6.20;;;1.63;;
16820;SDS011;8527;49.740;6.604;2022-11-23T12:49:36;3.58;;;1.48;;
16820;SDS011;8527;49.740;6.604;2022-11-23T12:54:44;8.55;;;1.73;;
16820;SDS011;8527;49.740;6.604;2022-11-23T12:59:51;8.15;;;2.13;;
16820;SDS011;8527;49.740;6.604;2022-11-23T13:21:21;3.85;;;1.42;;
16820;SDS011;8527;49.740;6.604;2022-11-23T13:26:35;4.53;;;1.30;;
16820;SDS011;8527;49.740;6.604;2022-11-23T13:31:41;7.25;;;1.58;;
16820;SDS011;8527;49.740;6.604;2022-11-23T13:36:46;5.45;;;1.60;;
16820;SDS011;8527;49.740;6.604;2022-11-23T13:41:58;4.53;;;1.60;;
16820;SDS011;8527;49.740;6.604;2022-11-23T13:47:00;9.18;;;1.98;;
16820;SDS011;8527;49.740;6.604;2022-11-23T13:52:27;12.68;;;1.70;;
16820;SDS011;8527;49.740;6.604;2022-11-23T13:57:32;4.72;;;1.63;;
16820;SDS011;8527;49.740;6.604;2022-11-23T14:02:33;5.15;;;1.38;;
16820;SDS011;8527;49.740;6.604;2022-11-23T14:07:36;8.10;;;1.98;;
16820;SDS011;8527;49.740;6.604;2022-11-23T14:12:41;4.47;;;1.60;;
16820;SDS011;8527;49.740;6.604;2022-11-23T14:18:00;8.60;;;1.73;;
16820;SDS011;8527;49.740;6.604;2022-11-23T14:29:05;6.47;;;1.70;;
16820;SDS011;8527;49.740;6.604;2022-11-23T14:34:19;5.80;;;1.83;;
16820;SDS011;8527;49.740;6.604;2022-11-23T14:39:38;4.40;;;1.58;;
16820;SDS011;8527;49.740;6.604;2022-11-23T14:44:51;5.40;;;2.08;;
16820;SDS011;8527;49.740;6.604;2022-11-23T14:49:51;10.27;;;2.58;;
16820;SDS011;8527;49.740;6.604;2022-11-23T14:54:55;5.90;;;2.05;;
16820;SDS011;8527;49.740;6.604;2022-11-23T14:59:56;9.27;;;2.33;;
16820;SDS011;8527;49.740;6.604;2022-11-23T15:05:00;19.67;;;4.55;;
16820;SDS011;8527;49.740;6.604;2022-11-23T15:10:07;9.07;;;2.70;;
16820;SDS011;8527;49.740;6.604;2022-11-23T15:15:17;8.98;;;2.75;;
16820;SDS011;8527;49.740;6.604;2022-11-23T15:20:17;8.88;;;3.60;;
16820;SDS011;8527;49.740;6.604;2022-11-23T15:25:19;9.45;;;3.17;;
16820;SDS011;8527;49.740;6.604;2022-11-23T15:30:25;8.60;;;2.53;;
16820;SDS011;8527;49.740;6.604;2022-11-23T15:35:31;7.65;;;2.22;;
16820;SDS011;8527;49.740;6.604;2022-11-23T15:40:34;4.85;;;2.08;;
16820;SDS011;8527;49.740;6.604;2022-11-23T15:45:38;6.72;;;2.53;;
16820;SDS011;8527;49.740;6.604;2022-11-23T15:50:58;14.02;;;5.75;;
16820;SDS011;8527;49.740;6.604;2022-11-23T15:56:02;7.20;;;3.25;;
16820;SDS011;8527;49.740;6.604;2022-11-23T16:01:06;7.38;;;4.32;;
16820;SDS011;8527;49.740;6.604;2022-11-23T16:06:21;10.77;;;5.03;;
16820;SDS011;8527;49.740;6.604;2022-11-23T16:11:26;7.38;;;3.55;;
16820;SDS011;8527;49.740;6.604;2022-11-23T16:16:26;11.32;;;4.35;;
16820;SDS011;8527;49.740;6.604;2022-11-23T16:21:25;8.35;;;3.08;;
16820;SDS011;8527;49.740;6.604;2022-11-23T16:26:30;4.65;;;2.22;;
16820;SDS011;8527;49.740;6.604;2022-11-23T16:31:34;7.18;;;1.92;;
16820;SDS011;8527;49.740;6.604;2022-11-23T16:36:34;6.78;;;2.22;;
16820;SDS011;8527;49.740;6.604;2022-11-23T16:41:35;4.70;;;2.00;;
16820;SDS011;8527;49.740;6.604;2022-11-23T16:46:33;5.05;;;2.33;;
16820;SDS011;8527;49.740;6.604;2022-11-23T16:51:32;6.00;;;2.10;;
16820;SDS011;8527;49.740;6.604;2022-11-23T16:56:30;7.82;;;2.72;;
16820;SDS011;8527;49.740;6.604;2022-11-23T17:01:34;5.80;;;1.75;;
16820;SDS011;8527;49.740;6.604;2022-11-23T17:06:40;5.18;;;2.08;;
16820;SDS011;8527;49.740;6.604;2022-11-23T17:11:39;10.93;;;4.03;;
16820;SDS011;8527;49.740;6.604;2022-11-23T17:16:44;7.63;;;3.67;;
16820;SDS011;8527;49.740;6.604;2022-11-23T17:21:42;11.73;;;6.38;;
16820;SDS011;8527;49.740;6.604;2022-11-23T17:26:41;5.25;;;2.50;;
16820;SDS011;8527;49.740;6.604;2022-11-23T17:31:44;14.98;;;5.70;;
16820;SDS011;8527;49.740;6.604;2022-11-23T17:36:43;15.20;;;6.22;;
16820;SDS011;8527;49.740;6.604;2022-11-23T17:41:46;2.88;;;2.22;;
16820;SDS011;8527;49.740;6.604;2022-11-23T17:46:53;3.03;;;2.55;;
16820;SDS011;8527;49.740;6.604;2022-11-23T17:51:56;7.75;;;2.53;;
16820;SDS011;8527;49.740;6.604;2022-11-23T17:56:54;8.73;;;2.85;;
16820;SDS011;8527;49.740;6.604;2022-11-23T18:01:57;9.30;;;3.78;;
16820;SDS011;8527;49.740;6.604;2022-11-23T18:06:56;6.57;;;3.85;;
16820;SDS011;8527;49.740;6.604;2022-11-23T18:11:57;5.20;;;2.58;;
16820;SDS011;8527;49.740;6.604;2022-11-23T18:16:59;5.65;;;4.13;;
16820;SDS011;8527;49.740;6.604;2022-11-23T18:21:57;6.15;;;4.10;;
16820;SDS011;8527;49.740;6.604;2022-11-23T18:26:55;6.15;;;3.50;;
16820;SDS011;8527;49.740;6.604;2022-11-23T18:31:54;9.40;;;4.63;;
16820;SDS011;8527;49.740;6.604;2022-11-23T18:36:55;6.05;;;3.03;;
16820;SDS011;8527;49.740;6.604;2022-11-23T18:41:56;14.02;;;4.75;;
16820;SDS011;8527;49.740;6.604;2022-11-23T18:46:55;7.90;;;3.33;;
16820;SDS011;8527;49.740;6.604;2022-11-23T18:51:59;9.70;;;3.95;;
16820;SDS011;8527;49.740;6.604;2022-11-23T18:56:58;5.03;;;3.67;;
16820;SDS011;8527;49.740;6.604;2022-11-23T19:01:56;9.88;;;4.40;;
16820;SDS011;8527;49.740;6.604;2022-11-23T19:06:54;7.63;;;3.53;;
16820;SDS011;8527;49.740;6.604;2022-11-23T19:11:56;13.95;;;6.40;;
16820;SDS011;8527;49.740;6.604;2022-11-23T19:16:55;14.85;;;5.68;;
16820;SDS011;8527;49.740;6.604;2022-11-23T19:21:53;10.52;;;5.30;;
16820;SDS011;8527;49.740;6.604;2022-11-23T19:26:51;11.75;;;4.80;;
16820;SDS011;8527;49.740;6.604;2022-11-23T19:31:53;13.60;;;6.15;;
16820;SDS011;8527;49.740;6.604;2022-11-23T19:36:51;14.88;;;7.80;;
16820;SDS011;8527;49.740;6.604;2022-11-23T19:41:50;22.83;;;10.38;;
16820;SDS011;8527;49.740;6.604;2022-11-23T19:46:48;18.83;;;9.15;;
16820;SDS011;8527;49.740;6.604;2022-11-23T19:51:50;15.52;;;8.43;;
16820;SDS011;8527;49.740;6.604;2022-11-23T19:56:50;14.10;;;6.60;;
16820;SDS011;8527;49.740;6.604;2022-11-23T20:01:49;15.77;;;7.20;;
16820;SDS011;8527;49.740;6.604;2022-11-23T20:06:50;13.23;;;7.45;;
16820;SDS011;8527;49.740;6.604;2022-11-23T20:12:00;14.07;;;6.55;;
16820;SDS011;8527;49.740;6.604;2022-11-23T20:17:05;12.52;;;6.00;;
16820;SDS011;8527;49.740;6.604;2022-11-23T20:22:06;10.50;;;5.88;;
16820;SDS011;8527;49.740;6.604;2022-11-23T20:27:12;7.97;;;4.72;;
16820;SDS011;8527;49.740;6.604;2022-11-23T20:32:10;16.50;;;5.93;;
16820;SDS011;8527;49.740;6.604;2022-11-23T20:37:12;9.65;;;4.80;;
16820;SDS011;8527;49.740;6.604;2022-11-23T20:42:10;18.65;;;7.50;;
16820;SDS011;8527;49.740;6.604;2022-11-23T20:47:11;17.33;;;9.00;;
16820;SDS011;8527;49.740;6.604;2022-11-23T20:52:12;13.07;;;7.05;;
16820;SDS011;8527;49.740;6.604;2022-11-23T20:57:10;16.55;;;7.60;;
16820;SDS011;8527;49.740;6.604;2022-11-23T21:02:13;15.30;;;6.47;;
16820;SDS011;8527;49.740;6.604;2022-11-23T21:07:17;15.27;;;5.85;;
16820;SDS011;8527;49.740;6.604;2022-11-23T21:12:16;9.95;;;3.95;;
16820;SDS011;8527;49.740;6.604;2022-11-23T21:17:26;16.25;;;7.15;;
16820;SDS011;8527;49.740;6.604;2022-11-23T21:22:29;17.05;;;7.18;;
16820;SDS011;8527;49.740;6.604;2022-11-23T21:27:27;22.65;;;6.40;;
16820;SDS011;8527;49.740;6.604;2022-11-23T21:32:27;9.40;;;4.38;;
16820;SDS011;8527;49.740;6.604;2022-11-23T21:37:29;11.48;;;4.60;;
16820;SDS011;8527;49.740;6.604;2022-11-23T21:42:27;11.98;;;3.92;;
16820;SDS011;8527;49.740;6.604;2022-11-23T21:47:25;9.10;;;3.40;;
16820;SDS011;8527;49.740;6.604;2022-11-23T21:52:24;12.32;;;3.88;;
16820;SDS011;8527;49.740;6.604;2022-11-23T21:57:26;10.20;;;4.15;;
16820;SDS011;8527;49.740;6.604;2022-11-23T22:02:27;10.88;;;4.45;;
16820;SDS011;8527;49.740;6.604;2022-11-23T22:07:25;11.48;;;3.88;;
16820;SDS011;8527;49.740;6.604;2022-11-23T22:12:23;10.82;;;4.10;;
16820;SDS011;8527;49.740;6.604;2022-11-23T22:17:24;13.38;;;3.53;;
16820;SDS011;8527;49.740;6.604;2022-11-23T22:22:26;11.55;;;3.35;;
16820;SDS011;8527;49.740;6.604;2022-11-23T22:27:28;16.25;;;3.40;;
16820;SDS011;8527;49.740;6.604;2022-11-23T22:32:27;13.82;;;3.20;;
16820;SDS011;8527;49.740;6.604;2022-11-23T22:37:25;13.32;;;3.33;;
16820;SDS011;8527;49.740;6.604;2022-11-23T22:42:29;12.38;;;3.58;;
16820;SDS011;8527;49.740;6.604;2022-11-23T22:47:28;19.00;;;4.80;;
16820;SDS011;8527;49.740;6.604;2022-11-23T22:52:26;9.95;;;4.05;;
16820;SDS011;8527;49.740;6.604;2022-11-23T22:57:25;14.88;;;4.18;;
16820;SDS011;8527;49.740;6.604;2022-11-23T23:02:27;17.27;;;4.00;;
16820;SDS011;8527;49.740;6.604;2022-11-23T23:07:26;12.77;;;3.72;;
16820;SDS011;8527;49.740;6.604;2022-11-23T23:12:27;9.65;;;3.40;;
16820;SDS011;8527;49.740;6.604;2022-11-23T23:17:28;13.60;;;3.22;;
16820;SDS011;8527;49.740;6.604;2022-11-23T23:22:27;14.45;;;3.40;;
16820;SDS011;8527;49.740;6.604;2022-11-23T23:27:28;8.65;;;2.70;;
16820;SDS011;8527;49.740;6.604;2022-11-23T23:32:30;11.27;;;2.95;;
16820;SDS011;8527;49.740;6.604;2022-11-23T23:37:31;12.05;;;3.30;;
16820;SDS011;8527;49.740;6.604;2022-11-23T23:42:32;14.27;;;3.50;;
16820;SDS011;8527;49.740;6.604;2022-11-23T23:47:33;8.90;;;2.65;;
16820;SDS011;8527;49.740;6.604;2022-11-23T23:52:33;11.23;;;2.70;;
16820;SDS011;8527;49.740;6.604;2022-11-23T23:57:34;19.30;;;2.80;;
